QLK123D YSSY-YGTH
Flight info
| Callsign | QLK123D |
|---|---|
| Flight time | 0h 58m |
| Altitude | 18000 |
| Route | TESAT A576 KADOM H44 BORLI |
| Aircraft | DH8D/M-SDFGHRZ/LB1 |
Departure
| Time | 2026-04-15 04:45 |
|---|---|
| Airport | Sydney Kingsford Smith International Airport (YSSY) |
Arrival
| Time | 2026-04-15 05:43 |
|---|---|
| Airport | Griffith Airport (YGTH) |
| Time | Latitude | Longitude | Altitude | Speed | Heading |
|---|---|---|---|---|---|
| 2026-04-15 03:20 | -33.93045 | 151.18242 | 30 ft | 0 kts | 135° |
| 2026-04-15 04:21 | -33.93045 | 151.18243 | 30 ft | 0 kts | 135° |
| 2026-04-15 04:29 | -33.93046 | 151.18243 | 30 ft | 0 kts | 135° |
| 2026-04-15 04:33 | -33.93044 | 151.18242 | 30 ft | 1 kts | 140° |
| 2026-04-15 04:33 | -33.93033 | 151.18230 | 30 ft | 2 kts | 135° |
| 2026-04-15 04:33 | -33.93023 | 151.18218 | 30 ft | 2 kts | 135° |
| 2026-04-15 04:34 | -33.93012 | 151.18204 | 30 ft | 2 kts | 135° |
| 2026-04-15 04:34 | -33.93000 | 151.18195 | 30 ft | 2 kts | 172° |
| 2026-04-15 04:34 | -33.92986 | 151.18196 | 30 ft | 0 kts | 193° |
| 2026-04-15 04:34 | -33.92984 | 151.18196 | 30 ft | 0 kts | 192° |
| 2026-04-15 04:38 | -33.92996 | 151.18195 | 30 ft | 6 kts | 188° |
| 2026-04-15 04:38 | -33.93065 | 151.18181 | 30 ft | 9 kts | 192° |
| 2026-04-15 04:39 | -33.93098 | 151.18164 | 30 ft | 2 kts | 215° |
| 2026-04-15 04:39 | -33.93100 | 151.18162 | 30 ft | 0 kts | 216° |
| 2026-04-15 04:39 | -33.93109 | 151.18153 | 30 ft | 1 kts | 225° |
| 2026-04-15 04:39 | -33.93122 | 151.18131 | 30 ft | 0 kts | 246° |
| 2026-04-15 04:40 | -33.93105 | 151.18065 | 30 ft | 20 kts | 287° |
| 2026-04-15 04:40 | -33.93076 | 151.17886 | 29 ft | 21 kts | 280° |
| 2026-04-15 04:40 | -33.93042 | 151.17723 | 30 ft | 19 kts | 298° |
| 2026-04-15 04:40 | -33.93004 | 151.17575 | 30 ft | 17 kts | 281° |
| 2026-04-15 04:41 | -33.92982 | 151.17439 | 30 ft | 15 kts | 281° |
| 2026-04-15 04:41 | -33.92965 | 151.17343 | 30 ft | 5 kts | 281° |
| 2026-04-15 04:41 | -33.92961 | 151.17316 | 30 ft | 0 kts | 280° |
| 2026-04-15 04:42 | -33.92960 | 151.17314 | 30 ft | 1 kts | 280° |
| 2026-04-15 04:42 | -33.92957 | 151.17290 | 30 ft | 4 kts | 280° |
| 2026-04-15 04:42 | -33.92959 | 151.17244 | 30 ft | 6 kts | 253° |
| 2026-04-15 04:43 | -33.92985 | 151.17203 | 30 ft | 6 kts | 217° |
| 2026-04-15 04:43 | -33.93025 | 151.17184 | 30 ft | 6 kts | 181° |
| 2026-04-15 04:43 | -33.93037 | 151.17186 | 30 ft | 0 kts | 168° |
| 2026-04-15 04:44 | -33.93068 | 151.17194 | 30 ft | 19 kts | 168° |
| 2026-04-15 04:44 | -33.93527 | 151.17313 | 30 ft | 112 kts | 166° |
| 2026-04-15 04:45 | -33.94466 | 151.17546 | 203 ft | 151 kts | 167° |
| 2026-04-15 04:45 | -33.95562 | 151.17760 | 761 ft | 169 kts | 174° |
| 2026-04-15 04:45 | -33.96689 | 151.17381 | 1425 ft | 182 kts | 216° |
| 2026-04-15 04:45 | -33.97636 | 151.16316 | 2056 ft | 193 kts | 223° |
| 2026-04-15 04:46 | -33.98615 | 151.15150 | 2567 ft | 203 kts | 225° |
| 2026-04-15 04:46 | -34.00695 | 151.12753 | 3822 ft | 211 kts | 224° |
| 2026-04-15 04:46 | -34.01787 | 151.11530 | 4403 ft | 216 kts | 224° |
| 2026-04-15 04:47 | -34.02904 | 151.10304 | 5012 ft | 219 kts | 224° |
| 2026-04-15 04:47 | -34.04018 | 151.09093 | 5710 ft | 218 kts | 224° |
| 2026-04-15 04:47 | -34.05139 | 151.07892 | 6390 ft | 217 kts | 224° |
| 2026-04-15 04:47 | -34.06277 | 151.06714 | 7003 ft | 219 kts | 224° |
| 2026-04-15 04:48 | -34.07120 | 151.05205 | 7563 ft | 218 kts | 257° |
| 2026-04-15 04:48 | -34.06886 | 151.03461 | 8089 ft | 223 kts | 298° |
| 2026-04-15 04:48 | -34.05670 | 151.02258 | 8618 ft | 235 kts | 329° |
| 2026-04-15 04:48 | -34.04272 | 151.01248 | 9145 ft | 231 kts | 310° |
| 2026-04-15 04:49 | -34.03463 | 150.99663 | 9724 ft | 225 kts | 291° |
| 2026-04-15 04:49 | -34.02774 | 150.97948 | 10239 ft | 229 kts | 292° |
| 2026-04-15 04:49 | -34.02055 | 150.96233 | 10787 ft | 232 kts | 293° |
| 2026-04-15 04:49 | -34.01307 | 150.94498 | 11320 ft | 234 kts | 294° |
| 2026-04-15 04:50 | -34.00539 | 150.92754 | 11834 ft | 237 kts | 294° |
| 2026-04-15 04:50 | -33.99752 | 150.90999 | 12330 ft | 239 kts | 295° |
| 2026-04-15 04:50 | -33.98949 | 150.89226 | 12768 ft | 243 kts | 295° |
| 2026-04-15 04:50 | -33.98127 | 150.87430 | 13274 ft | 245 kts | 295° |
| 2026-04-15 04:51 | -33.97299 | 150.85634 | 13713 ft | 247 kts | 295° |
| 2026-04-15 04:51 | -33.96471 | 150.83844 | 14181 ft | 248 kts | 295° |
| 2026-04-15 04:51 | -33.95622 | 150.82018 | 14613 ft | 250 kts | 295° |
| 2026-04-15 04:51 | -33.94767 | 150.80182 | 15058 ft | 251 kts | 295° |
| 2026-04-15 04:52 | -33.93906 | 150.78340 | 15449 ft | 253 kts | 295° |
| 2026-04-15 04:52 | -33.93038 | 150.76485 | 15831 ft | 256 kts | 295° |
| 2026-04-15 04:52 | -33.92165 | 150.74623 | 16292 ft | 254 kts | 295° |
| 2026-04-15 04:52 | -33.91295 | 150.72766 | 16654 ft | 256 kts | 295° |
| 2026-04-15 04:53 | -33.90409 | 150.70882 | 16962 ft | 261 kts | 295° |
| 2026-04-15 04:53 | -33.89526 | 150.69005 | 17400 ft | 259 kts | 295° |
| 2026-04-15 04:53 | -33.88620 | 150.67078 | 17730 ft | 260 kts | 295° |
| 2026-04-15 04:53 | -33.87711 | 150.65146 | 17967 ft | 262 kts | 295° |
| 2026-04-15 04:54 | -33.86821 | 150.63251 | 18039 ft | 261 kts | 295° |
| 2026-04-15 04:54 | -33.85886 | 150.61264 | 18063 ft | 263 kts | 295° |
| 2026-04-15 04:54 | -33.84964 | 150.59306 | 18072 ft | 265 kts | 295° |
| 2026-04-15 04:54 | -33.84030 | 150.57326 | 18080 ft | 267 kts | 295° |
| 2026-04-15 04:55 | -33.83106 | 150.55371 | 18057 ft | 268 kts | 295° |
| 2026-04-15 04:55 | -33.82166 | 150.53381 | 18070 ft | 269 kts | 295° |
| 2026-04-15 04:55 | -33.81232 | 150.51407 | 18080 ft | 270 kts | 295° |
| 2026-04-15 04:55 | -33.80286 | 150.49406 | 18080 ft | 271 kts | 295° |
| 2026-04-15 04:56 | -33.79348 | 150.47427 | 18247 ft | 272 kts | 295° |
| 2026-04-15 04:56 | -33.78405 | 150.45444 | 18630 ft | 271 kts | 295° |
| 2026-04-15 04:56 | -33.77473 | 150.43483 | 18935 ft | 271 kts | 295° |
| 2026-04-15 04:56 | -33.76538 | 150.41515 | 19178 ft | 272 kts | 295° |
| 2026-04-15 04:57 | -33.75586 | 150.39511 | 19486 ft | 272 kts | 295° |
| 2026-04-15 04:57 | -33.74646 | 150.37535 | 19770 ft | 271 kts | 295° |
| 2026-04-15 04:57 | -33.73694 | 150.35532 | 19958 ft | 274 kts | 295° |
| 2026-04-15 04:57 | -33.72739 | 150.33522 | 20253 ft | 274 kts | 296° |
| 2026-04-15 04:58 | -33.71805 | 150.31557 | 20560 ft | 271 kts | 295° |
| 2026-04-15 04:58 | -33.71170 | 150.29427 | 20625 ft | 269 kts | 272° |
| 2026-04-15 04:58 | -33.71280 | 150.27176 | 20856 ft | 267 kts | 263° |
| 2026-04-15 04:58 | -33.71478 | 150.24915 | 21045 ft | 268 kts | 264° |
| 2026-04-15 04:59 | -33.71679 | 150.22667 | 21262 ft | 268 kts | 264° |
| 2026-04-15 04:59 | -33.71876 | 150.20444 | 21423 ft | 269 kts | 263° |
| 2026-04-15 04:59 | -33.72075 | 150.18201 | 21642 ft | 269 kts | 264° |
| 2026-04-15 04:59 | -33.72274 | 150.15942 | 21855 ft | 267 kts | 264° |
| 2026-04-15 05:00 | -33.72473 | 150.13672 | 21968 ft | 269 kts | 264° |
| 2026-04-15 05:00 | -33.72670 | 150.11410 | 22107 ft | 271 kts | 264° |
| 2026-04-15 05:00 | -33.72869 | 150.09119 | 22245 ft | 272 kts | 264° |
| 2026-04-15 05:00 | -33.73065 | 150.06867 | 22687 ft | 261 kts | 264° |
| 2026-04-15 05:01 | -33.73254 | 150.04677 | 22889 ft | 260 kts | 264° |
| 2026-04-15 05:01 | -33.73443 | 150.02498 | 22993 ft | 262 kts | 264° |
| 2026-04-15 05:01 | -33.73633 | 150.00279 | 23210 ft | 260 kts | 264° |
| 2026-04-15 05:01 | -33.73826 | 149.98042 | 23306 ft | 262 kts | 264° |
| 2026-04-15 05:02 | -33.74041 | 149.95525 | 23393 ft | 264 kts | 264° |
| 2026-04-15 05:02 | -33.74243 | 149.93162 | 23594 ft | 262 kts | 264° |
| 2026-04-15 05:02 | -33.74436 | 149.90894 | 23665 ft | 264 kts | 264° |
| 2026-04-15 05:02 | -33.74632 | 149.88591 | 23790 ft | 265 kts | 264° |
| 2026-04-15 05:03 | -33.74828 | 149.86272 | 23904 ft | 265 kts | 264° |
| 2026-04-15 05:03 | -33.75024 | 149.83954 | 24039 ft | 265 kts | 264° |
| 2026-04-15 05:03 | -33.75220 | 149.81641 | 24113 ft | 267 kts | 264° |
| 2026-04-15 05:03 | -33.75414 | 149.79330 | 24146 ft | 270 kts | 264° |
| 2026-04-15 05:04 | -33.75605 | 149.77054 | 24151 ft | 274 kts | 264° |
| 2026-04-15 05:04 | -33.75802 | 149.74721 | 24153 ft | 277 kts | 264° |
| 2026-04-15 05:04 | -33.75993 | 149.72424 | 24156 ft | 279 kts | 264° |
| 2026-04-15 05:04 | -33.76187 | 149.70094 | 24155 ft | 282 kts | 264° |
| 2026-04-15 05:05 | -33.76383 | 149.67737 | 24153 ft | 284 kts | 264° |
| 2026-04-15 05:05 | -33.76590 | 149.65250 | 24153 ft | 286 kts | 264° |
| 2026-04-15 05:05 | -33.76784 | 149.62898 | 24150 ft | 287 kts | 264° |
| 2026-04-15 05:05 | -33.76985 | 149.60472 | 24151 ft | 289 kts | 264° |
| 2026-04-15 05:06 | -33.77188 | 149.58008 | 24152 ft | 290 kts | 264° |
| 2026-04-15 05:06 | -33.77398 | 149.55443 | 24148 ft | 290 kts | 264° |
| 2026-04-15 05:06 | -33.77604 | 149.52930 | 24151 ft | 291 kts | 264° |
| 2026-04-15 05:06 | -33.77804 | 149.50488 | 24150 ft | 292 kts | 264° |
| 2026-04-15 05:07 | -33.78011 | 149.47948 | 24143 ft | 293 kts | 264° |
| 2026-04-15 05:07 | -33.78214 | 149.45456 | 24143 ft | 293 kts | 264° |
| 2026-04-15 05:07 | -33.78415 | 149.42986 | 24143 ft | 294 kts | 264° |
| 2026-04-15 05:07 | -33.78622 | 149.40425 | 24142 ft | 294 kts | 264° |
| 2026-04-15 05:08 | -33.78825 | 149.37904 | 24143 ft | 295 kts | 264° |
| 2026-04-15 05:08 | -33.79032 | 149.35338 | 24138 ft | 295 kts | 264° |
| 2026-04-15 05:08 | -33.79236 | 149.32791 | 24141 ft | 296 kts | 264° |
| 2026-04-15 05:08 | -33.79439 | 149.30273 | 24144 ft | 296 kts | 265° |
| 2026-04-15 05:09 | -33.79637 | 149.27805 | 24143 ft | 297 kts | 265° |
| 2026-04-15 05:09 | -33.79835 | 149.25319 | 24136 ft | 298 kts | 265° |
| 2026-04-15 05:09 | -33.80036 | 149.22798 | 24137 ft | 298 kts | 265° |
| 2026-04-15 05:09 | -33.80235 | 149.20297 | 24136 ft | 299 kts | 264° |
| 2026-04-15 05:10 | -33.80434 | 149.17776 | 24125 ft | 299 kts | 265° |
| 2026-04-15 05:10 | -33.80640 | 149.15172 | 24127 ft | 299 kts | 264° |
| 2026-04-15 05:10 | -33.80841 | 149.12611 | 24127 ft | 300 kts | 265° |
| 2026-04-15 05:10 | -33.81055 | 149.09888 | 24121 ft | 299 kts | 264° |
| 2026-04-15 05:11 | -33.81275 | 149.07075 | 24120 ft | 298 kts | 265° |
| 2026-04-15 05:11 | -33.81475 | 149.04517 | 24115 ft | 297 kts | 264° |
| 2026-04-15 05:11 | -33.81668 | 149.02035 | 24115 ft | 297 kts | 264° |
| 2026-04-15 05:11 | -33.81870 | 148.99432 | 24115 ft | 297 kts | 264° |
| 2026-04-15 05:12 | -33.82070 | 148.96845 | 24117 ft | 296 kts | 265° |
| 2026-04-15 05:12 | -33.82262 | 148.94356 | 24119 ft | 296 kts | 264° |
| 2026-04-15 05:12 | -33.82464 | 148.91740 | 24124 ft | 296 kts | 264° |
| 2026-04-15 05:12 | -33.82660 | 148.89171 | 24124 ft | 296 kts | 264° |
| 2026-04-15 05:13 | -33.82855 | 148.86624 | 24129 ft | 296 kts | 264° |
| 2026-04-15 05:13 | -33.83050 | 148.84073 | 24132 ft | 297 kts | 265° |
| 2026-04-15 05:13 | -33.83249 | 148.81457 | 24134 ft | 297 kts | 264° |
| 2026-04-15 05:13 | -33.83459 | 148.78682 | 24131 ft | 297 kts | 265° |
| 2026-04-15 05:14 | -33.83651 | 148.76147 | 24131 ft | 297 kts | 264° |
| 2026-04-15 05:14 | -33.83842 | 148.73616 | 24131 ft | 297 kts | 265° |
| 2026-04-15 05:14 | -33.84038 | 148.71011 | 24133 ft | 297 kts | 264° |
| 2026-04-15 05:14 | -33.84231 | 148.68430 | 24130 ft | 298 kts | 265° |
| 2026-04-15 05:15 | -33.84426 | 148.65872 | 24130 ft | 298 kts | 264° |
| 2026-04-15 05:15 | -33.84764 | 148.63353 | 24131 ft | 299 kts | 259° |
| 2026-04-15 05:15 | -33.85193 | 148.60809 | 24129 ft | 299 kts | 259° |
| 2026-04-15 05:15 | -33.85617 | 148.58308 | 24130 ft | 299 kts | 259° |
| 2026-04-15 05:16 | -33.86031 | 148.55855 | 24130 ft | 300 kts | 259° |
| 2026-04-15 05:16 | -33.86478 | 148.53201 | 24127 ft | 300 kts | 259° |
| 2026-04-15 05:16 | -33.86917 | 148.50581 | 24124 ft | 300 kts | 259° |
| 2026-04-15 05:16 | -33.87348 | 148.47998 | 24127 ft | 300 kts | 259° |
| 2026-04-15 05:17 | -33.87775 | 148.45435 | 24130 ft | 300 kts | 259° |
| 2026-04-15 05:17 | -33.88171 | 148.42960 | 24131 ft | 300 kts | 260° |
| 2026-04-15 05:17 | -33.88511 | 148.40494 | 24124 ft | 300 kts | 261° |
| 2026-04-15 05:17 | -33.88856 | 148.37915 | 24125 ft | 301 kts | 261° |
| 2026-04-15 05:18 | -33.89193 | 148.35403 | 24130 ft | 301 kts | 261° |
| 2026-04-15 05:18 | -33.89531 | 148.32890 | 24124 ft | 302 kts | 261° |
| 2026-04-15 05:18 | -33.89868 | 148.30383 | 24125 ft | 302 kts | 261° |
| 2026-04-15 05:18 | -33.90215 | 148.27799 | 24121 ft | 303 kts | 261° |
| 2026-04-15 05:19 | -33.90557 | 148.25262 | 24123 ft | 304 kts | 261° |
| 2026-04-15 05:19 | -33.90900 | 148.22713 | 24123 ft | 304 kts | 261° |
| 2026-04-15 05:19 | -33.91245 | 148.20143 | 24126 ft | 304 kts | 261° |
| 2026-04-15 05:19 | -33.91592 | 148.17563 | 24125 ft | 305 kts | 261° |
| 2026-04-15 05:20 | -33.91935 | 148.15002 | 24125 ft | 305 kts | 261° |
| 2026-04-15 05:20 | -33.92294 | 148.12317 | 24121 ft | 305 kts | 261° |
| 2026-04-15 05:20 | -33.92646 | 148.09689 | 24124 ft | 305 kts | 262° |
| 2026-04-15 05:20 | -33.92981 | 148.07176 | 24121 ft | 306 kts | 261° |
| 2026-04-15 05:21 | -33.93344 | 148.04456 | 24122 ft | 306 kts | 261° |
| 2026-04-15 05:21 | -33.93700 | 148.01775 | 24117 ft | 306 kts | 261° |
| 2026-04-15 05:21 | -33.94068 | 147.99008 | 24115 ft | 305 kts | 261° |
| 2026-04-15 05:21 | -33.94430 | 147.96283 | 24116 ft | 305 kts | 261° |
| 2026-04-15 05:22 | -33.94775 | 147.93678 | 24117 ft | 306 kts | 261° |
| 2026-04-15 05:22 | -33.95111 | 147.91136 | 24116 ft | 306 kts | 261° |
| 2026-04-15 05:22 | -33.95448 | 147.88585 | 24120 ft | 307 kts | 261° |
| 2026-04-15 05:22 | -33.95779 | 147.86064 | 24117 ft | 307 kts | 261° |
| 2026-04-15 05:23 | -33.96131 | 147.83391 | 24117 ft | 308 kts | 261° |
| 2026-04-15 05:23 | -33.96486 | 147.80692 | 24117 ft | 308 kts | 261° |
| 2026-04-15 05:23 | -33.96820 | 147.78145 | 24118 ft | 308 kts | 261° |
| 2026-04-15 05:23 | -33.97165 | 147.75505 | 24113 ft | 309 kts | 261° |
| 2026-04-15 05:24 | -33.97530 | 147.72716 | 24113 ft | 308 kts | 261° |
| 2026-04-15 05:24 | -33.97863 | 147.70163 | 24115 ft | 308 kts | 261° |
| 2026-04-15 05:24 | -33.98210 | 147.67494 | 24114 ft | 308 kts | 261° |
| 2026-04-15 05:24 | -33.98561 | 147.64809 | 24111 ft | 308 kts | 261° |
| 2026-04-15 05:25 | -33.98893 | 147.62251 | 24116 ft | 308 kts | 261° |
| 2026-04-15 05:25 | -33.99241 | 147.59567 | 24033 ft | 311 kts | 261° |
| 2026-04-15 05:25 | -33.99588 | 147.56888 | 23724 ft | 319 kts | 261° |
| 2026-04-15 05:25 | -33.99943 | 147.54147 | 23321 ft | 315 kts | 261° |
| 2026-04-15 05:26 | -34.00306 | 147.51367 | 22904 ft | 306 kts | 261° |
| 2026-04-15 05:26 | -34.00658 | 147.48651 | 22497 ft | 302 kts | 261° |
| 2026-04-15 05:26 | -34.00990 | 147.46085 | 22113 ft | 301 kts | 261° |
| 2026-04-15 05:26 | -34.01312 | 147.43570 | 21739 ft | 303 kts | 261° |
| 2026-04-15 05:27 | -34.01635 | 147.41049 | 21357 ft | 305 kts | 261° |
| 2026-04-15 05:27 | -34.01971 | 147.38420 | 20963 ft | 306 kts | 261° |
| 2026-04-15 05:27 | -34.02296 | 147.35870 | 20578 ft | 307 kts | 261° |
| 2026-04-15 05:27 | -34.02620 | 147.33325 | 20197 ft | 308 kts | 261° |
| 2026-04-15 05:28 | -34.02953 | 147.30699 | 19797 ft | 309 kts | 261° |
| 2026-04-15 05:28 | -34.03289 | 147.28038 | 19392 ft | 309 kts | 261° |
| 2026-04-15 05:28 | -34.03614 | 147.25476 | 19011 ft | 310 kts | 261° |
| 2026-04-15 05:28 | -34.03951 | 147.22804 | 18611 ft | 310 kts | 261° |
| 2026-04-15 05:29 | -34.04292 | 147.20097 | 18196 ft | 310 kts | 261° |
| 2026-04-15 05:29 | -34.04641 | 147.17328 | 17779 ft | 311 kts | 261° |
| 2026-04-15 05:29 | -34.04975 | 147.14667 | 17381 ft | 311 kts | 261° |
| 2026-04-15 05:29 | -34.05310 | 147.11999 | 16973 ft | 310 kts | 261° |
| 2026-04-15 05:30 | -34.05659 | 147.09212 | 16553 ft | 309 kts | 261° |
| 2026-04-15 05:30 | -34.05993 | 147.06547 | 16153 ft | 308 kts | 261° |
| 2026-04-15 05:30 | -34.06318 | 147.03949 | 15765 ft | 308 kts | 261° |
| 2026-04-15 05:30 | -34.06643 | 147.01341 | 15371 ft | 307 kts | 261° |
| 2026-04-15 05:31 | -34.06965 | 146.98747 | 14980 ft | 306 kts | 261° |
| 2026-04-15 05:31 | -34.07289 | 146.96147 | 14589 ft | 305 kts | 261° |
| 2026-04-15 05:31 | -34.07613 | 146.93536 | 14203 ft | 304 kts | 261° |
| 2026-04-15 05:31 | -34.07935 | 146.90936 | 13799 ft | 301 kts | 261° |
| 2026-04-15 05:32 | -34.08250 | 146.88330 | 13403 ft | 296 kts | 261° |
| 2026-04-15 05:32 | -34.08555 | 146.85843 | 13032 ft | 291 kts | 261° |
| 2026-04-15 05:32 | -34.08868 | 146.83295 | 12654 ft | 287 kts | 261° |
| 2026-04-15 05:32 | -34.09162 | 146.80899 | 12291 ft | 284 kts | 261° |
| 2026-04-15 05:33 | -34.09461 | 146.78462 | 11928 ft | 282 kts | 261° |
| 2026-04-15 05:33 | -34.09750 | 146.76100 | 11575 ft | 279 kts | 261° |
| 2026-04-15 05:33 | -34.10051 | 146.73640 | 11201 ft | 277 kts | 261° |
| 2026-04-15 05:33 | -34.10331 | 146.71339 | 10861 ft | 275 kts | 261° |
| 2026-04-15 05:34 | -34.10623 | 146.68948 | 10504 ft | 273 kts | 261° |
| 2026-04-15 05:34 | -34.10910 | 146.66591 | 10145 ft | 272 kts | 261° |
| 2026-04-15 05:34 | -34.11190 | 146.64282 | 9687 ft | 274 kts | 261° |
| 2026-04-15 05:34 | -34.11462 | 146.62036 | 9301 ft | 270 kts | 261° |
| 2026-04-15 05:35 | -34.11748 | 146.59694 | 8933 ft | 261 kts | 261° |
| 2026-04-15 05:35 | -34.12013 | 146.57509 | 8594 ft | 256 kts | 261° |
| 2026-04-15 05:35 | -34.12268 | 146.55402 | 8275 ft | 252 kts | 261° |
| 2026-04-15 05:35 | -34.12530 | 146.53233 | 7948 ft | 248 kts | 261° |
| 2026-04-15 05:36 | -34.12782 | 146.51150 | 7635 ft | 246 kts | 261° |
| 2026-04-15 05:36 | -34.13028 | 146.49106 | 7329 ft | 245 kts | 261° |
| 2026-04-15 05:36 | -34.13273 | 146.47058 | 7024 ft | 244 kts | 261° |
| 2026-04-15 05:36 | -34.13530 | 146.44911 | 6701 ft | 243 kts | 261° |
| 2026-04-15 05:37 | -34.13773 | 146.42885 | 6394 ft | 242 kts | 261° |
| 2026-04-15 05:37 | -34.14014 | 146.40855 | 6087 ft | 242 kts | 261° |
| 2026-04-15 05:37 | -34.14249 | 146.38869 | 5781 ft | 235 kts | 261° |
| 2026-04-15 05:37 | -34.14489 | 146.36856 | 5420 ft | 231 kts | 261° |
| 2026-04-15 05:38 | -34.14739 | 146.34822 | 4821 ft | 236 kts | 259° |
| 2026-04-15 05:38 | -34.15271 | 146.32916 | 4396 ft | 229 kts | 246° |
| 2026-04-15 05:38 | -34.15947 | 146.31130 | 4047 ft | 221 kts | 245° |
| 2026-04-15 05:38 | -34.16575 | 146.29483 | 3755 ft | 212 kts | 245° |
| 2026-04-15 05:39 | -34.17218 | 146.27792 | 3473 ft | 209 kts | 245° |
| 2026-04-15 05:39 | -34.17842 | 146.26138 | 3219 ft | 209 kts | 245° |
| 2026-04-15 05:39 | -34.18448 | 146.24532 | 3111 ft | 206 kts | 245° |
| 2026-04-15 05:39 | -34.19044 | 146.22942 | 3068 ft | 204 kts | 246° |
| 2026-04-15 05:40 | -34.19640 | 146.21355 | 2867 ft | 205 kts | 245° |
| 2026-04-15 05:40 | -34.20229 | 146.19795 | 2618 ft | 197 kts | 245° |
| 2026-04-15 05:40 | -34.20797 | 146.18297 | 2378 ft | 185 kts | 245° |
| 2026-04-15 05:40 | -34.21328 | 146.16895 | 2160 ft | 177 kts | 245° |
| 2026-04-15 05:41 | -34.21818 | 146.15596 | 1952 ft | 161 kts | 245° |
| 2026-04-15 05:41 | -34.22281 | 146.14368 | 1737 ft | 148 kts | 245° |
| 2026-04-15 05:41 | -34.22710 | 146.13222 | 1519 ft | 138 kts | 245° |
| 2026-04-15 05:41 | -34.23105 | 146.12163 | 1335 ft | 133 kts | 246° |
| 2026-04-15 05:42 | -34.23500 | 146.11092 | 1177 ft | 140 kts | 246° |
| 2026-04-15 05:42 | -34.23908 | 146.10023 | 982 ft | 137 kts | 245° |
| 2026-04-15 05:42 | -34.24303 | 146.08962 | 804 ft | 137 kts | 245° |
| 2026-04-15 05:42 | -34.24702 | 146.07904 | 643 ft | 138 kts | 245° |
| 2026-04-15 05:43 | -34.25099 | 146.06851 | 466 ft | 134 kts | 246° |
| 2026-04-15 05:43 | -34.25395 | 146.06061 | 436 ft | 64 kts | 246° |
| 2026-04-15 05:43 | -34.25541 | 146.05669 | 436 ft | 43 kts | 246° |
| 2026-04-15 05:43 | -34.25643 | 146.05400 | 435 ft | 28 kts | 247° |
| 2026-04-15 05:44 | -34.25691 | 146.05272 | 434 ft | 13 kts | 236° |
| 2026-04-15 05:44 | -34.25713 | 146.05203 | 434 ft | 7 kts | 15° |
| 2026-04-15 05:44 | -34.25665 | 146.05333 | 434 ft | 26 kts | 66° |
| 2026-04-15 05:44 | -34.25577 | 146.05572 | 436 ft | 30 kts | 66° |
| 2026-04-15 05:45 | -34.25487 | 146.05811 | 436 ft | 30 kts | 66° |
| 2026-04-15 05:45 | -34.25408 | 146.06026 | 436 ft | 22 kts | 66° |
| 2026-04-15 05:45 | -34.25377 | 146.06148 | 435 ft | 10 kts | 126° |
| 2026-04-15 05:45 | -34.25429 | 146.06186 | 437 ft | 6 kts | 155° |
| 2026-04-15 05:46 | -34.25465 | 146.06210 | 437 ft | 4 kts | 154° |
| 2026-04-15 05:46 | -34.25470 | 146.06213 | 438 ft | 0 kts | 152° |
| 2026-04-15 05:46 | -34.25471 | 146.06213 | 438 ft | 0 kts | 153° |